This is the latest recevied weather packets stored in our database for station/object N9UMJ-12. If no packets are shown the sender has not sent any weather packets the latest 10 day(s).
| Time | Temp. | Humidity | Pressure | Rain* | Wind** | Luminosity | Snow |
|---|---|---|---|---|---|---|---|
| 1777821319 | 13.33° C | 58% | 1020.8 hPa | 0 mm | - | 741 W/m² | - |
| 1777811719 | 6.11° C | 81% | 1021.1 hPa | 0 mm | - | 206 W/m² | - |
| 1777806925 | 0.56° C | 99% | 1020.2 hPa | 0.51 mm | - | 23 W/m² | - |
| 1777805726 | 0.56° C | 99% | 1020.1 hPa | 0.25 mm | - | 7 W/m² | - |
| 1777802727 | 1.11° C | 99% | 1019.9 hPa | 0 mm | - | 0 W/m² | - |
| 1777787719 | 1.67° C | 95% | 1020.2 hPa | 0 mm | - | 0 W/m² | - |
| 1777781118 | 2.78° C | 84% | 1020 hPa | 0 mm | - | 0 W/m² | - |
| 1777778739 | 3.33° C | 83% | 1020.1 hPa | 0 mm | - | 0 W/m² | - |
| 1777774517 | 5° C | 74% | 1019.8 hPa | 0 mm | - | 0 W/m² | - |
| 1777773320 | 5.56° C | 74% | 1019.6 hPa | 0 mm | - | 0 W/m² | - |
| 1777772118 | 6.11° C | 72% | 1019.4 hPa | 0 mm | - | 0 W/m² | - |
| 1777769119 | 9.44° C | 55% | 1018.9 hPa | 0 mm | - | 3 W/m² | - |
| 1777767919 | 10° C | 54% | 1018.6 hPa | 0 mm | - | 15 W/m² | - |
| 1777763718 | 11.67° C | 51% | 1018.2 hPa | 0 mm | - | 149 W/m² | - |
| 1777762541 | 11.67° C | 52% | 1018.2 hPa | 0 mm | - | 250 W/m² | - |
| 1777760718 | 11.67° C | 51% | 1018 hPa | 0 mm | - | 109 W/m² | - |
| 1777759518 | 12.22° C | 50% | 1018 hPa | 0 mm | - | 259 W/m² | - |
| 1777757719 | 12.22° C | 49% | 1017.8 hPa | 0 mm | - | 162 W/m² | - |
| 1777753517 | 11.67° C | 56% | 1018.1 hPa | 0 mm | - | 138 W/m² | - |
| 1777751717 | 12.22° C | 57% | 1018.3 hPa | 0 mm | - | 759 W/m² | - |
| 1777751117 | 11.67° C | 60% | 1018.5 hPa | 0 mm | - | 909 W/m² | - |
| 1777749318 | 12.22° C | 57% | 1018.6 hPa | 0 mm | - | 211 W/m² | - |
| 1777748118 | 11.11° C | 61% | 1018.9 hPa | 0 mm | - | 282 W/m² | - |
| 1777744540 | 11.67° C | 60% | 1019.1 hPa | 0 mm | - | 1117 W/m² | - |
| 1777735519 | 8.89° C | 66% | 1020 hPa | 0 mm | - | 561 W/m² | - |
* Rain latest hour (hover to see other rain measurements)
** Current wind speed in m/s (hover to see current wind gust speed)